sensor_id;sensor_type;location;lat;lon;timestamp;P1;durP1;ratioP1;P2;durP2;ratioP2
76786;SDS011;65739;51.482;5.702;2023-02-26T00:00:12;16.27;;;3.60;;
76786;SDS011;65739;51.482;5.702;2023-02-26T00:02:41;9.10;;;3.03;;
76786;SDS011;65739;51.482;5.702;2023-02-26T00:05:11;11.27;;;3.20;;
76786;SDS011;65739;51.482;5.702;2023-02-26T00:07:40;10.25;;;2.83;;
76786;SDS011;65739;51.482;5.702;2023-02-26T00:10:07;10.68;;;2.97;;
76786;SDS011;65739;51.482;5.702;2023-02-26T00:12:35;8.63;;;2.67;;
76786;SDS011;65739;51.482;5.702;2023-02-26T00:15:14;10.03;;;2.83;;
76786;SDS011;65739;51.482;5.702;2023-02-26T00:20:13;10.88;;;2.97;;
76786;SDS011;65739;51.482;5.702;2023-02-26T00:22:41;14.90;;;3.25;;
76786;SDS011;65739;51.482;5.702;2023-02-26T00:25:08;6.32;;;2.60;;
76786;SDS011;65739;51.482;5.702;2023-02-26T00:27:37;9.27;;;3.53;;
76786;SDS011;65739;51.482;5.702;2023-02-26T00:30:04;12.23;;;3.70;;
76786;SDS011;65739;51.482;5.702;2023-02-26T00:32:33;10.63;;;3.15;;
76786;SDS011;65739;51.482;5.702;2023-02-26T00:35:03;11.20;;;3.60;;
76786;SDS011;65739;51.482;5.702;2023-02-26T00:40:34;13.38;;;3.45;;
76786;SDS011;65739;51.482;5.702;2023-02-26T00:43:04;8.13;;;2.90;;
76786;SDS011;65739;51.482;5.702;2023-02-26T00:45:40;10.35;;;3.25;;
76786;SDS011;65739;51.482;5.702;2023-02-26T00:48:21;11.65;;;3.38;;
76786;SDS011;65739;51.482;5.702;2023-02-26T00:50:55;9.38;;;3.10;;
76786;SDS011;65739;51.482;5.702;2023-02-26T00:54:00;7.03;;;2.95;;
76786;SDS011;65739;51.482;5.702;2023-02-26T00:59:30;12.05;;;3.80;;
76786;SDS011;65739;51.482;5.702;2023-02-26T01:01:56;10.57;;;3.60;;
76786;SDS011;65739;51.482;5.702;2023-02-26T01:04:22;10.70;;;3.63;;
76786;SDS011;65739;51.482;5.702;2023-02-26T01:07:04;16.80;;;3.67;;
76786;SDS011;65739;51.482;5.702;2023-02-26T01:09:34;11.45;;;3.63;;
76786;SDS011;65739;51.482;5.702;2023-02-26T01:12:03;10.73;;;3.88;;
76786;SDS011;65739;51.482;5.702;2023-02-26T01:14:33;9.15;;;3.55;;
76786;SDS011;65739;51.482;5.702;2023-02-26T01:19:54;10.65;;;3.50;;
76786;SDS011;65739;51.482;5.702;2023-02-26T01:22:49;10.45;;;3.22;;
76786;SDS011;65739;51.482;5.702;2023-02-26T01:27:48;8.75;;;2.60;;
76786;SDS011;65739;51.482;5.702;2023-02-26T01:30:14;10.77;;;2.78;;
76786;SDS011;65739;51.482;5.702;2023-02-26T01:32:48;11.80;;;2.97;;
76786;SDS011;65739;51.482;5.702;2023-02-26T01:38:36;7.00;;;2.30;;
76786;SDS011;65739;51.482;5.702;2023-02-26T01:49:39;6.65;;;2.50;;
76786;SDS011;65739;51.482;5.702;2023-02-26T01:52:56;7.60;;;1.98;;
76786;SDS011;65739;51.482;5.702;2023-02-26T01:55:15;9.57;;;1.95;;
76786;SDS011;65739;51.482;5.702;2023-02-26T01:57:43;6.60;;;1.92;;
76786;SDS011;65739;51.482;5.702;2023-02-26T02:00:13;4.05;;;1.83;;
76786;SDS011;65739;51.482;5.702;2023-02-26T02:02:49;7.53;;;2.22;;
76786;SDS011;65739;51.482;5.702;2023-02-26T02:05:24;9.70;;;2.33;;
76786;SDS011;65739;51.482;5.702;2023-02-26T02:07:56;7.45;;;2.28;;
76786;SDS011;65739;51.482;5.702;2023-02-26T02:10:23;7.00;;;2.30;;
76786;SDS011;65739;51.482;5.702;2023-02-26T02:34:54;5.93;;;2.10;;
76786;SDS011;65739;51.482;5.702;2023-02-26T02:37:47;13.15;;;2.47;;
76786;SDS011;65739;51.482;5.702;2023-02-26T02:40:30;8.05;;;2.17;;
76786;SDS011;65739;51.482;5.702;2023-02-26T02:43:03;9.93;;;2.42;;
76786;SDS011;65739;51.482;5.702;2023-02-26T02:45:56;8.85;;;2.22;;
76786;SDS011;65739;51.482;5.702;2023-02-26T02:48:30;9.75;;;2.00;;
76786;SDS011;65739;51.482;5.702;2023-02-26T02:52:11;7.05;;;2.20;;
76786;SDS011;65739;51.482;5.702;2023-02-26T02:54:10;7.78;;;2.13;;
76786;SDS011;65739;51.482;5.702;2023-02-26T02:56:42;13.13;;;2.30;;
76786;SDS011;65739;51.482;5.702;2023-02-26T02:59:55;4.18;;;1.90;;
76786;SDS011;65739;51.482;5.702;2023-02-26T03:02:21;6.38;;;2.00;;
76786;SDS011;65739;51.482;5.702;2023-02-26T03:04:52;5.10;;;1.90;;
76786;SDS011;65739;51.482;5.702;2023-02-26T03:07:21;6.47;;;1.50;;
76786;SDS011;65739;51.482;5.702;2023-02-26T03:09:47;7.95;;;1.75;;
76786;SDS011;65739;51.482;5.702;2023-02-26T03:12:13;6.75;;;1.88;;
76786;SDS011;65739;51.482;5.702;2023-02-26T03:14:46;9.27;;;1.65;;
76786;SDS011;65739;51.482;5.702;2023-02-26T03:20:02;9.20;;;2.28;;
76786;SDS011;65739;51.482;5.702;2023-02-26T03:23:02;10.80;;;1.70;;
76786;SDS011;65739;51.482;5.702;2023-02-26T03:25:52;3.58;;;1.38;;
76786;SDS011;65739;51.482;5.702;2023-02-26T03:28:30;6.03;;;1.73;;
76786;SDS011;65739;51.482;5.702;2023-02-26T03:34:16;6.53;;;1.30;;
76786;SDS011;65739;51.482;5.702;2023-02-26T03:37:22;6.40;;;1.40;;
76786;SDS011;65739;51.482;5.702;2023-02-26T03:39:53;3.45;;;1.48;;
76786;SDS011;65739;51.482;5.702;2023-02-26T03:45:24;4.93;;;1.35;;
76786;SDS011;65739;51.482;5.702;2023-02-26T03:48:00;7.45;;;1.23;;
76786;SDS011;65739;51.482;5.702;2023-02-26T03:53:02;7.65;;;1.55;;
76786;SDS011;65739;51.482;5.702;2023-02-26T03:55:40;2.95;;;1.17;;
76786;SDS011;65739;51.482;5.702;2023-02-26T03:58:33;4.80;;;1.08;;
76786;SDS011;65739;51.482;5.702;2023-02-26T04:01:03;5.15;;;1.30;;
76786;SDS011;65739;51.482;5.702;2023-02-26T04:03:43;4.07;;;1.25;;
76786;SDS011;65739;51.482;5.702;2023-02-26T04:06:19;6.15;;;1.30;;
76786;SDS011;65739;51.482;5.702;2023-02-26T04:08:46;1.95;;;1.10;;
76786;SDS011;65739;51.482;5.702;2023-02-26T04:11:16;4.10;;;1.15;;
76786;SDS011;65739;51.482;5.702;2023-02-26T04:13:44;10.23;;;1.60;;
76786;SDS011;65739;51.482;5.702;2023-02-26T04:16:15;3.10;;;1.20;;
76786;SDS011;65739;51.482;5.702;2023-02-26T04:18:44;4.55;;;1.45;;
76786;SDS011;65739;51.482;5.702;2023-02-26T04:21:22;1.10;;;1.00;;
76786;SDS011;65739;51.482;5.702;2023-02-26T04:23:59;5.30;;;1.40;;
76786;SDS011;65739;51.482;5.702;2023-02-26T04:26:25;4.95;;;1.25;;
76786;SDS011;65739;51.482;5.702;2023-02-26T04:28:51;4.88;;;1.20;;
76786;SDS011;65739;51.482;5.702;2023-02-26T04:31:20;5.40;;;1.10;;
76786;SDS011;65739;51.482;5.702;2023-02-26T04:33:46;3.83;;;1.10;;
76786;SDS011;65739;51.482;5.702;2023-02-26T04:36:12;7.35;;;1.58;;
76786;SDS011;65739;51.482;5.702;2023-02-26T04:38:37;1.85;;;0.90;;
76786;SDS011;65739;51.482;5.702;2023-02-26T04:41:06;4.55;;;1.08;;
76786;SDS011;65739;51.482;5.702;2023-02-26T04:43:32;7.40;;;1.40;;
76786;SDS011;65739;51.482;5.702;2023-02-26T04:45:58;7.00;;;1.52;;
76786;SDS011;65739;51.482;5.702;2023-02-26T04:48:24;8.00;;;1.30;;
76786;SDS011;65739;51.482;5.702;2023-02-26T04:51:24;7.18;;;1.38;;
76786;SDS011;65739;51.482;5.702;2023-02-26T04:53:50;3.20;;;1.48;;
76786;SDS011;65739;51.482;5.702;2023-02-26T04:56:16;4.40;;;1.10;;
76786;SDS011;65739;51.482;5.702;2023-02-26T04:58:41;5.20;;;1.35;;
76786;SDS011;65739;51.482;5.702;2023-02-26T05:01:07;3.05;;;1.30;;
76786;SDS011;65739;51.482;5.702;2023-02-26T05:03:33;4.30;;;1.48;;
76786;SDS011;65739;51.482;5.702;2023-02-26T05:06:02;7.43;;;1.67;;
76786;SDS011;65739;51.482;5.702;2023-02-26T05:08:31;7.63;;;1.48;;
76786;SDS011;65739;51.482;5.702;2023-02-26T05:11:00;3.47;;;1.33;;
76786;SDS011;65739;51.482;5.702;2023-02-26T05:13:26;8.93;;;1.30;;
76786;SDS011;65739;51.482;5.702;2023-02-26T05:16:13;4.57;;;1.20;;
76786;SDS011;65739;51.482;5.702;2023-02-26T05:18:47;6.47;;;1.50;;
76786;SDS011;65739;51.482;5.702;2023-02-26T05:21:16;6.07;;;1.10;;
76786;SDS011;65739;51.482;5.702;2023-02-26T05:23:46;4.82;;;1.33;;
76786;SDS011;65739;51.482;5.702;2023-02-26T05:26:12;7.25;;;1.40;;
76786;SDS011;65739;51.482;5.702;2023-02-26T05:28:43;5.97;;;1.20;;
76786;SDS011;65739;51.482;5.702;2023-02-26T05:33:50;4.55;;;1.15;;
76786;SDS011;65739;51.482;5.702;2023-02-26T05:36:16;5.57;;;1.60;;
76786;SDS011;65739;51.482;5.702;2023-02-26T05:38:42;11.45;;;1.27;;
76786;SDS011;65739;51.482;5.702;2023-02-26T05:41:08;2.47;;;0.90;;
76786;SDS011;65739;51.482;5.702;2023-02-26T05:43:34;8.38;;;1.27;;
76786;SDS011;65739;51.482;5.702;2023-02-26T05:46:00;4.90;;;0.95;;
76786;SDS011;65739;51.482;5.702;2023-02-26T05:48:26;4.47;;;1.08;;
76786;SDS011;65739;51.482;5.702;2023-02-26T05:50:52;3.90;;;1.02;;
76786;SDS011;65739;51.482;5.702;2023-02-26T05:56:00;4.60;;;1.00;;
76786;SDS011;65739;51.482;5.702;2023-02-26T05:58:29;4.05;;;1.05;;
76786;SDS011;65739;51.482;5.702;2023-02-26T06:00:58;4.68;;;1.00;;
76786;SDS011;65739;51.482;5.702;2023-02-26T06:03:25;5.78;;;1.10;;
76786;SDS011;65739;51.482;5.702;2023-02-26T06:05:51;6.90;;;0.95;;
76786;SDS011;65739;51.482;5.702;2023-02-26T06:08:17;4.93;;;0.93;;
76786;SDS011;65739;51.482;5.702;2023-02-26T06:10:43;4.75;;;1.70;;
76786;SDS011;65739;51.482;5.702;2023-02-26T06:13:11;4.32;;;1.20;;
76786;SDS011;65739;51.482;5.702;2023-02-26T06:15:40;2.03;;;0.88;;
76786;SDS011;65739;51.482;5.702;2023-02-26T06:18:06;5.15;;;1.10;;
76786;SDS011;65739;51.482;5.702;2023-02-26T06:20:32;5.95;;;1.02;;
76786;SDS011;65739;51.482;5.702;2023-02-26T06:22:58;2.28;;;1.00;;
76786;SDS011;65739;51.482;5.702;2023-02-26T06:25:24;7.20;;;1.13;;
76786;SDS011;65739;51.482;5.702;2023-02-26T06:27:50;4.93;;;0.90;;
76786;SDS011;65739;51.482;5.702;2023-02-26T06:30:16;5.78;;;0.90;;
76786;SDS011;65739;51.482;5.702;2023-02-26T06:32:43;6.38;;;1.33;;
76786;SDS011;65739;51.482;5.702;2023-02-26T06:35:09;3.97;;;0.80;;
76786;SDS011;65739;51.482;5.702;2023-02-26T06:37:40;3.20;;;1.20;;
76786;SDS011;65739;51.482;5.702;2023-02-26T06:40:09;9.13;;;1.25;;
76786;SDS011;65739;51.482;5.702;2023-02-26T06:42:39;11.73;;;1.15;;
76786;SDS011;65739;51.482;5.702;2023-02-26T06:45:14;4.70;;;1.20;;
76786;SDS011;65739;51.482;5.702;2023-02-26T06:47:42;3.72;;;1.20;;
76786;SDS011;65739;51.482;5.702;2023-02-26T06:50:11;10.23;;;1.23;;
76786;SDS011;65739;51.482;5.702;2023-02-26T06:52:48;9.73;;;1.10;;
76786;SDS011;65739;51.482;5.702;2023-02-26T06:55:15;5.68;;;1.30;;
76786;SDS011;65739;51.482;5.702;2023-02-26T06:57:45;5.30;;;1.20;;
76786;SDS011;65739;51.482;5.702;2023-02-26T07:00:14;6.28;;;1.13;;
76786;SDS011;65739;51.482;5.702;2023-02-26T07:05:39;9.88;;;1.60;;
76786;SDS011;65739;51.482;5.702;2023-02-26T07:08:05;7.70;;;0.93;;
76786;SDS011;65739;51.482;5.702;2023-02-26T07:10:38;4.18;;;1.10;;
76786;SDS011;65739;51.482;5.702;2023-02-26T07:13:04;6.72;;;1.00;;
76786;SDS011;65739;51.482;5.702;2023-02-26T07:18:17;7.13;;;1.00;;
76786;SDS011;65739;51.482;5.702;2023-02-26T07:20:43;6.25;;;0.85;;
76786;SDS011;65739;51.482;5.702;2023-02-26T07:23:09;5.80;;;1.13;;
76786;SDS011;65739;51.482;5.702;2023-02-26T07:25:48;4.88;;;1.35;;
76786;SDS011;65739;51.482;5.702;2023-02-26T07:28:14;5.95;;;0.82;;
76786;SDS011;65739;51.482;5.702;2023-02-26T07:30:42;10.60;;;1.45;;
76786;SDS011;65739;51.482;5.702;2023-02-26T07:33:08;7.22;;;0.82;;
76786;SDS011;65739;51.482;5.702;2023-02-26T07:35:34;4.13;;;0.80;;
76786;SDS011;65739;51.482;5.702;2023-02-26T07:38:00;3.50;;;0.80;;
76786;SDS011;65739;51.482;5.702;2023-02-26T07:40:26;6.00;;;0.85;;
76786;SDS011;65739;51.482;5.702;2023-02-26T07:42:52;5.13;;;1.50;;
76786;SDS011;65739;51.482;5.702;2023-02-26T07:45:17;2.55;;;0.73;;
76786;SDS011;65739;51.482;5.702;2023-02-26T07:47:46;6.50;;;0.88;;
76786;SDS011;65739;51.482;5.702;2023-02-26T07:50:13;7.72;;;0.80;;
76786;SDS011;65739;51.482;5.702;2023-02-26T07:52:39;6.75;;;0.77;;
76786;SDS011;65739;51.482;5.702;2023-02-26T07:55:05;2.15;;;1.10;;
76786;SDS011;65739;51.482;5.702;2023-02-26T07:57:33;4.28;;;1.08;;
76786;SDS011;65739;51.482;5.702;2023-02-26T07:59:58;4.97;;;0.95;;
76786;SDS011;65739;51.482;5.702;2023-02-26T08:02:24;2.33;;;1.00;;
76786;SDS011;65739;51.482;5.702;2023-02-26T08:04:51;3.15;;;1.02;;
76786;SDS011;65739;51.482;5.702;2023-02-26T08:07:22;1.50;;;0.65;;
76786;SDS011;65739;51.482;5.702;2023-02-26T08:09:48;3.83;;;0.77;;
76786;SDS011;65739;51.482;5.702;2023-02-26T08:12:14;4.80;;;0.90;;
76786;SDS011;65739;51.482;5.702;2023-02-26T08:14:40;3.90;;;0.90;;
76786;SDS011;65739;51.482;5.702;2023-02-26T08:17:24;6.32;;;1.13;;
76786;SDS011;65739;51.482;5.702;2023-02-26T08:19:52;0.82;;;0.50;;
76786;SDS011;65739;51.482;5.702;2023-02-26T08:22:18;4.20;;;0.73;;
76786;SDS011;65739;51.482;5.702;2023-02-26T08:24:52;2.25;;;0.70;;
76786;SDS011;65739;51.482;5.702;2023-02-26T08:27:23;4.00;;;0.95;;
76786;SDS011;65739;51.482;5.702;2023-02-26T08:29:49;5.38;;;1.27;;
76786;SDS011;65739;51.482;5.702;2023-02-26T08:32:18;2.88;;;0.80;;
76786;SDS011;65739;51.482;5.702;2023-02-26T08:34:47;2.33;;;0.63;;
76786;SDS011;65739;51.482;5.702;2023-02-26T08:37:19;4.20;;;0.80;;
76786;SDS011;65739;51.482;5.702;2023-02-26T08:39:48;2.05;;;0.73;;
76786;SDS011;65739;51.482;5.702;2023-02-26T08:42:24;4.30;;;0.93;;
76786;SDS011;65739;51.482;5.702;2023-02-26T08:44:49;4.50;;;0.82;;
76786;SDS011;65739;51.482;5.702;2023-02-26T08:47:15;3.80;;;0.88;;
76786;SDS011;65739;51.482;5.702;2023-02-26T08:49:41;4.78;;;0.98;;
76786;SDS011;65739;51.482;5.702;2023-02-26T08:52:07;2.55;;;0.60;;
76786;SDS011;65739;51.482;5.702;2023-02-26T08:54:32;2.67;;;0.77;;
76786;SDS011;65739;51.482;5.702;2023-02-26T08:56:58;4.15;;;1.05;;
76786;SDS011;65739;51.482;5.702;2023-02-26T08:59:24;3.83;;;0.73;;
76786;SDS011;65739;51.482;5.702;2023-02-26T09:01:50;6.00;;;1.20;;
76786;SDS011;65739;51.482;5.702;2023-02-26T09:04:19;3.42;;;0.77;;
76786;SDS011;65739;51.482;5.702;2023-02-26T09:06:45;3.47;;;0.63;;
76786;SDS011;65739;51.482;5.702;2023-02-26T09:09:11;7.45;;;1.23;;
76786;SDS011;65739;51.482;5.702;2023-02-26T09:11:40;2.28;;;0.80;;
76786;SDS011;65739;51.482;5.702;2023-02-26T09:14:06;1.67;;;0.70;;
76786;SDS011;65739;51.482;5.702;2023-02-26T09:16:40;2.67;;;0.70;;
76786;SDS011;65739;51.482;5.702;2023-02-26T09:19:27;1.50;;;0.88;;
76786;SDS011;65739;51.482;5.702;2023-02-26T09:21:53;2.78;;;0.80;;
76786;SDS011;65739;51.482;5.702;2023-02-26T09:24:18;5.70;;;1.00;;
76786;SDS011;65739;51.482;5.702;2023-02-26T09:26:47;2.58;;;0.63;;
76786;SDS011;65739;51.482;5.702;2023-02-26T09:29:49;1.33;;;0.50;;
76786;SDS011;65739;51.482;5.702;2023-02-26T09:32:08;1.45;;;0.80;;
76786;SDS011;65739;51.482;5.702;2023-02-26T09:34:37;3.80;;;0.75;;
76786;SDS011;65739;51.482;5.702;2023-02-26T09:37:03;2.47;;;0.50;;
76786;SDS011;65739;51.482;5.702;2023-02-26T09:39:33;3.22;;;0.52;;
76786;SDS011;65739;51.482;5.702;2023-02-26T09:42:04;2.88;;;0.75;;
76786;SDS011;65739;51.482;5.702;2023-02-26T09:44:40;4.22;;;0.63;;
76786;SDS011;65739;51.482;5.702;2023-02-26T09:50:02;1.55;;;0.52;;
76786;SDS011;65739;51.482;5.702;2023-02-26T09:52:44;2.42;;;0.65;;
76786;SDS011;65739;51.482;5.702;2023-02-26T09:55:44;4.65;;;0.77;;
76786;SDS011;65739;51.482;5.702;2023-02-26T09:58:20;4.68;;;0.65;;
76786;SDS011;65739;51.482;5.702;2023-02-26T10:01:02;3.05;;;0.77;;
76786;SDS011;65739;51.482;5.702;2023-02-26T10:12:25;0.60;;;0.40;;
76786;SDS011;65739;51.482;5.702;2023-02-26T10:14:54;3.03;;;0.50;;
76786;SDS011;65739;51.482;5.702;2023-02-26T10:23:20;1.27;;;0.60;;
76786;SDS011;65739;51.482;5.702;2023-02-26T10:26:24;1.80;;;0.63;;
76786;SDS011;65739;51.482;5.702;2023-02-26T10:32:14;5.50;;;0.50;;
76786;SDS011;65739;51.482;5.702;2023-02-26T10:34:59;1.90;;;0.50;;
76786;SDS011;65739;51.482;5.702;2023-02-26T10:37:45;2.00;;;0.63;;
76786;SDS011;65739;51.482;5.702;2023-02-26T10:40:18;4.03;;;0.68;;
76786;SDS011;65739;51.482;5.702;2023-02-26T10:43:15;2.13;;;0.52;;
76786;SDS011;65739;51.482;5.702;2023-02-26T10:49:24;2.42;;;0.50;;
76786;SDS011;65739;51.482;5.702;2023-02-26T10:52:07;2.58;;;0.60;;
76786;SDS011;65739;51.482;5.702;2023-02-26T10:55:01;4.57;;;0.40;;
76786;SDS011;65739;51.482;5.702;2023-02-26T11:00:44;2.90;;;0.80;;
76786;SDS011;65739;51.482;5.702;2023-02-26T11:03:15;4.85;;;0.52;;
76786;SDS011;65739;51.482;5.702;2023-02-26T11:05:44;1.45;;;0.55;;
76786;SDS011;65739;51.482;5.702;2023-02-26T11:08:19;2.38;;;0.55;;
76786;SDS011;65739;51.482;5.702;2023-02-26T11:10:54;2.75;;;0.68;;
76786;SDS011;65739;51.482;5.702;2023-02-26T11:13:22;3.10;;;0.57;;
76786;SDS011;65739;51.482;5.702;2023-02-26T11:15:50;2.90;;;0.40;;
76786;SDS011;65739;51.482;5.702;2023-02-26T11:18:22;0.20;;;0.20;;
76786;SDS011;65739;51.482;5.702;2023-02-26T11:20:52;3.65;;;0.68;;
76786;SDS011;65739;51.482;5.702;2023-02-26T11:26:39;0.98;;;0.50;;
76786;SDS011;65739;51.482;5.702;2023-02-26T11:29:14;2.25;;;0.43;;
76786;SDS011;65739;51.482;5.702;2023-02-26T11:32:29;2.72;;;0.57;;
76786;SDS011;65739;51.482;5.702;2023-02-26T11:34:38;3.08;;;0.68;;
76786;SDS011;65739;51.482;5.702;2023-02-26T11:37:16;1.90;;;0.40;;
76786;SDS011;65739;51.482;5.702;2023-02-26T11:40:03;2.10;;;0.57;;
76786;SDS011;65739;51.482;5.702;2023-02-26T11:43:13;1.85;;;0.68;;
76786;SDS011;65739;51.482;5.702;2023-02-26T11:45:57;17.08;;;6.15;;
76786;SDS011;65739;51.482;5.702;2023-02-26T11:48:27;2.00;;;0.57;;
76786;SDS011;65739;51.482;5.702;2023-02-26T11:51:18;1.27;;;0.57;;
76786;SDS011;65739;51.482;5.702;2023-02-26T11:53:54;2.80;;;0.60;;
76786;SDS011;65739;51.482;5.702;2023-02-26T11:56:25;5.57;;;2.05;;
76786;SDS011;65739;51.482;5.702;2023-02-26T11:58:57;5.35;;;0.50;;
76786;SDS011;65739;51.482;5.702;2023-02-26T12:02:11;2.92;;;0.85;;
76786;SDS011;65739;51.482;5.702;2023-02-26T12:04:44;4.78;;;0.82;;
76786;SDS011;65739;51.482;5.702;2023-02-26T12:07:13;4.00;;;1.13;;
76786;SDS011;65739;51.482;5.702;2023-02-26T12:09:43;2.47;;;0.60;;
76786;SDS011;65739;51.482;5.702;2023-02-26T12:18:07;4.03;;;0.52;;
76786;SDS011;65739;51.482;5.702;2023-02-26T12:23:54;3.05;;;0.65;;
76786;SDS011;65739;51.482;5.702;2023-02-26T12:38:34;2.38;;;0.77;;
76786;SDS011;65739;51.482;5.702;2023-02-26T12:53:28;0.95;;;0.40;;
76786;SDS011;65739;51.482;5.702;2023-02-26T13:02:50;1.05;;;0.32;;
76786;SDS011;65739;51.482;5.702;2023-02-26T13:08:15;2.35;;;0.40;;
76786;SDS011;65739;51.482;5.702;2023-02-26T13:16:33;2.20;;;0.70;;
76786;SDS011;65739;51.482;5.702;2023-02-26T13:19:22;5.72;;;0.70;;
76786;SDS011;65739;51.482;5.702;2023-02-26T13:21:57;1.80;;;0.60;;
76786;SDS011;65739;51.482;5.702;2023-02-26T13:24:47;1.52;;;0.57;;
76786;SDS011;65739;51.482;5.702;2023-02-26T13:27:36;1.15;;;0.40;;
76786;SDS011;65739;51.482;5.702;2023-02-26T13:30:05;1.75;;;0.50;;
76786;SDS011;65739;51.482;5.702;2023-02-26T13:32:43;4.35;;;0.60;;
76786;SDS011;65739;51.482;5.702;2023-02-26T13:35:23;1.73;;;0.57;;
76786;SDS011;65739;51.482;5.702;2023-02-26T13:38:17;2.08;;;0.50;;
76786;SDS011;65739;51.482;5.702;2023-02-26T13:48:48;1.15;;;0.88;;
76786;SDS011;65739;51.482;5.702;2023-02-26T13:51:39;1.15;;;0.70;;
76786;SDS011;65739;51.482;5.702;2023-02-26T14:06:53;0.75;;;0.57;;
76786;SDS011;65739;51.482;5.702;2023-02-26T14:11:59;4.35;;;0.60;;
76786;SDS011;65739;51.482;5.702;2023-02-26T14:14:32;3.28;;;0.55;;
76786;SDS011;65739;51.482;5.702;2023-02-26T14:19:36;2.55;;;0.50;;
76786;SDS011;65739;51.482;5.702;2023-02-26T14:27:38;1.17;;;0.60;;
76786;SDS011;65739;51.482;5.702;2023-02-26T14:35:42;2.38;;;0.60;;
76786;SDS011;65739;51.482;5.702;2023-02-26T14:38:11;1.05;;;0.38;;
76786;SDS011;65739;51.482;5.702;2023-02-26T14:40:46;1.90;;;0.47;;
76786;SDS011;65739;51.482;5.702;2023-02-26T14:43:16;2.08;;;0.93;;
76786;SDS011;65739;51.482;5.702;2023-02-26T14:45:46;2.60;;;0.70;;
76786;SDS011;65739;51.482;5.702;2023-02-26T14:48:15;2.05;;;0.60;;
76786;SDS011;65739;51.482;5.702;2023-02-26T14:53:55;1.30;;;1.10;;
76786;SDS011;65739;51.482;5.702;2023-02-26T14:57:03;1.85;;;0.50;;
76786;SDS011;65739;51.482;5.702;2023-02-26T15:02:20;0.88;;;0.55;;
76786;SDS011;65739;51.482;5.702;2023-02-26T15:05:03;2.80;;;0.70;;
76786;SDS011;65739;51.482;5.702;2023-02-26T15:10:50;2.85;;;0.50;;
76786;SDS011;65739;51.482;5.702;2023-02-26T15:18:38;0.98;;;0.50;;
76786;SDS011;65739;51.482;5.702;2023-02-26T15:24:08;1.38;;;0.60;;
76786;SDS011;65739;51.482;5.702;2023-02-26T15:26:40;1.33;;;0.50;;
76786;SDS011;65739;51.482;5.702;2023-02-26T15:29:20;1.75;;;0.50;;
76786;SDS011;65739;51.482;5.702;2023-02-26T15:31:54;2.42;;;0.50;;
76786;SDS011;65739;51.482;5.702;2023-02-26T15:34:22;1.55;;;0.60;;
76786;SDS011;65739;51.482;5.702;2023-02-26T15:36:51;1.63;;;0.40;;
76786;SDS011;65739;51.482;5.702;2023-02-26T15:39:18;2.83;;;0.50;;
76786;SDS011;65739;51.482;5.702;2023-02-26T15:41:48;0.82;;;0.32;;
76786;SDS011;65739;51.482;5.702;2023-02-26T15:44:20;2.28;;;0.60;;
76786;SDS011;65739;51.482;5.702;2023-02-26T15:46:56;1.50;;;0.57;;
76786;SDS011;65739;51.482;5.702;2023-02-26T15:52:24;1.33;;;0.60;;
76786;SDS011;65739;51.482;5.702;2023-02-26T15:54:53;1.20;;;0.47;;
76786;SDS011;65739;51.482;5.702;2023-02-26T15:57:21;1.42;;;0.60;;
76786;SDS011;65739;51.482;5.702;2023-02-26T15:59:51;1.92;;;0.52;;
76786;SDS011;65739;51.482;5.702;2023-02-26T16:02:23;0.95;;;0.40;;
76786;SDS011;65739;51.482;5.702;2023-02-26T16:04:57;4.03;;;0.60;;
76786;SDS011;65739;51.482;5.702;2023-02-26T16:07:26;2.05;;;0.77;;
76786;SDS011;65739;51.482;5.702;2023-02-26T16:09:52;1.48;;;0.55;;
76786;SDS011;65739;51.482;5.702;2023-02-26T16:12:20;1.85;;;0.68;;
76786;SDS011;65739;51.482;5.702;2023-02-26T16:14:59;1.17;;;0.68;;
76786;SDS011;65739;51.482;5.702;2023-02-26T16:17:32;1.85;;;0.45;;
76786;SDS011;65739;51.482;5.702;2023-02-26T16:20:10;1.95;;;0.52;;
76786;SDS011;65739;51.482;5.702;2023-02-26T16:22:47;1.20;;;0.52;;
76786;SDS011;65739;51.482;5.702;2023-02-26T16:25:53;1.38;;;0.40;;
76786;SDS011;65739;51.482;5.702;2023-02-26T16:28:28;2.40;;;0.60;;
76786;SDS011;65739;51.482;5.702;2023-02-26T16:30:57;0.70;;;0.45;;
76786;SDS011;65739;51.482;5.702;2023-02-26T16:33:25;1.88;;;0.55;;
76786;SDS011;65739;51.482;5.702;2023-02-26T16:36:05;2.00;;;0.60;;
76786;SDS011;65739;51.482;5.702;2023-02-26T16:49:22;0.82;;;0.68;;
76786;SDS011;65739;51.482;5.702;2023-02-26T16:51:58;0.63;;;0.40;;
76786;SDS011;65739;51.482;5.702;2023-02-26T17:01:19;2.08;;;0.88;;
76786;SDS011;65739;51.482;5.702;2023-02-26T17:25:03;3.65;;;0.50;;
76786;SDS011;65739;51.482;5.702;2023-02-26T17:31:55;0.75;;;0.50;;
76786;SDS011;65739;51.482;5.702;2023-02-26T17:37:50;1.48;;;0.47;;
76786;SDS011;65739;51.482;5.702;2023-02-26T17:44:09;0.63;;;0.50;;
76786;SDS011;65739;51.482;5.702;2023-02-26T17:53:55;3.55;;;0.70;;
76786;SDS011;65739;51.482;5.702;2023-02-26T17:57:01;2.20;;;1.20;;
76786;SDS011;65739;51.482;5.702;2023-02-26T18:19:54;1.23;;;1.00;;
76786;SDS011;65739;51.482;5.702;2023-02-26T18:22:29;3.00;;;0.70;;
76786;SDS011;65739;51.482;5.702;2023-02-26T18:25:01;3.78;;;0.90;;
76786;SDS011;65739;51.482;5.702;2023-02-26T18:28:16;0.47;;;0.43;;
76786;SDS011;65739;51.482;5.702;2023-02-26T18:40:55;5.05;;;0.70;;
76786;SDS011;65739;51.482;5.702;2023-02-26T18:47:14;1.90;;;0.70;;
76786;SDS011;65739;51.482;5.702;2023-02-26T18:50:17;0.88;;;0.70;;
76786;SDS011;65739;51.482;5.702;2023-02-26T18:52:43;0.80;;;0.68;;
76786;SDS011;65739;51.482;5.702;2023-02-26T19:02:20;0.50;;;0.50;;
76786;SDS011;65739;51.482;5.702;2023-02-26T19:04:55;1.08;;;0.80;;
76786;SDS011;65739;51.482;5.702;2023-02-26T19:08:19;3.15;;;1.00;;
76786;SDS011;65739;51.482;5.702;2023-02-26T19:14:57;2.67;;;0.70;;
76786;SDS011;65739;51.482;5.702;2023-02-26T19:20:52;2.45;;;1.02;;
76786;SDS011;65739;51.482;5.702;2023-02-26T19:36:02;2.30;;;0.88;;
76786;SDS011;65739;51.482;5.702;2023-02-26T19:38:28;2.75;;;0.90;;
76786;SDS011;65739;51.482;5.702;2023-02-26T19:40:57;2.55;;;0.80;;
76786;SDS011;65739;51.482;5.702;2023-02-26T19:43:39;3.38;;;0.80;;
76786;SDS011;65739;51.482;5.702;2023-02-26T19:46:36;1.52;;;0.95;;
76786;SDS011;65739;51.482;5.702;2023-02-26T19:49:06;5.45;;;1.08;;
76786;SDS011;65739;51.482;5.702;2023-02-26T19:54:31;2.03;;;1.20;;
76786;SDS011;65739;51.482;5.702;2023-02-26T19:57:27;3.27;;;1.20;;
76786;SDS011;65739;51.482;5.702;2023-02-26T20:01:07;4.30;;;1.48;;
76786;SDS011;65739;51.482;5.702;2023-02-26T20:03:36;4.63;;;1.17;;
76786;SDS011;65739;51.482;5.702;2023-02-26T20:08:51;4.60;;;1.77;;
76786;SDS011;65739;51.482;5.702;2023-02-26T20:11:37;1.58;;;1.05;;
76786;SDS011;65739;51.482;5.702;2023-02-26T20:14:03;2.28;;;1.08;;
76786;SDS011;65739;51.482;5.702;2023-02-26T20:16:30;4.10;;;1.40;;
76786;SDS011;65739;51.482;5.702;2023-02-26T20:18:56;6.65;;;1.38;;
76786;SDS011;65739;51.482;5.702;2023-02-26T20:21:21;6.63;;;1.15;;
76786;SDS011;65739;51.482;5.702;2023-02-26T20:23:59;3.50;;;1.10;;
76786;SDS011;65739;51.482;5.702;2023-02-26T20:32:29;5.50;;;1.70;;
76786;SDS011;65739;51.482;5.702;2023-02-26T20:35:35;7.15;;;1.50;;
76786;SDS011;65739;51.482;5.702;2023-02-26T20:38:01;4.63;;;1.00;;
76786;SDS011;65739;51.482;5.702;2023-02-26T20:40:35;4.97;;;1.38;;
76786;SDS011;65739;51.482;5.702;2023-02-26T20:43:07;3.03;;;1.25;;
76786;SDS011;65739;51.482;5.702;2023-02-26T20:45:39;3.97;;;1.15;;
76786;SDS011;65739;51.482;5.702;2023-02-26T20:48:05;2.17;;;1.15;;
76786;SDS011;65739;51.482;5.702;2023-02-26T20:51:09;3.70;;;1.00;;
76786;SDS011;65739;51.482;5.702;2023-02-26T20:53:45;3.58;;;1.10;;
76786;SDS011;65739;51.482;5.702;2023-02-26T20:56:16;3.10;;;0.80;;
76786;SDS011;65739;51.482;5.702;2023-02-26T20:59:24;2.92;;;1.30;;
76786;SDS011;65739;51.482;5.702;2023-02-26T21:01:37;2.75;;;1.05;;